Time;durP1;ratioP1;P1;durP2;ratioP2;P2;SDS_P1;SDS_P2;PMS_P1;PMS_P2;Temp;Humidity;BMP_temperature;BMP_pressure;BME280_temperature;BME280_humidity;BME280_pressure;Samples;Min_cycle;Max_cycle;Signal;HPM_P1;HPM_P2
2023/08/30 00:01:58;;;;;;;8.65;5.30;;;;;;;12.54;100.00;100605.22;7366784;19;20697;-48
2023/08/30 00:04:31;;;;;;;6.60;4.50;;;;;;;12.46;100.00;100608.41;7390636;19;20363;-49
2023/08/30 00:07:01;;;;;;;7.60;5.38;;;;;;;12.41;100.00;100611.72;7366883;19;20373;-48
2023/08/30 00:09:30;;;;;;;9.77;6.40;;;;;;;12.41;100.00;100598.78;7391515;19;20357;-51
2023/08/30 00:12:00;;;;;;;11.32;6.90;;;;;;;12.40;100.00;100598.72;7366995;19;20432;-47
2023/08/30 00:14:30;;;;;;;11.15;7.25;;;;;;;12.36;100.00;100602.06;7390608;19;20368;-46
2023/08/30 00:16:59;;;;;;;10.07;7.05;;;;;;;12.34;100.00;100601.09;7366785;19;20389;-53
2023/08/30 00:19:32;;;;;;;12.07;7.40;;;;;;;12.24;100.00;100602.50;7390351;19;20371;-50
2023/08/30 00:22:01;;;;;;;11.15;7.20;;;;;;;12.19;100.00;100596.34;7367036;19;20428;-48
2023/08/30 00:24:31;;;;;;;13.25;7.88;;;;;;;12.24;100.00;100597.34;7390437;19;20699;-48
2023/08/30 00:27:00;;;;;;;9.73;6.82;;;;;;;12.28;100.00;100602.69;7366961;19;20369;-51
2023/08/30 00:29:30;;;;;;;9.65;6.70;;;;;;;12.22;100.00;100594.72;7390637;19;20375;-47
2023/08/30 00:32:00;;;;;;;11.60;7.50;;;;;;;12.19;100.00;100599.78;7365800;19;20371;-50
2023/08/30 00:34:32;;;;;;;18.00;12.70;;;;;;;12.14;100.00;100603.94;7390290;19;20556;-46
2023/08/30 00:37:02;;;;;;;12.85;8.55;;;;;;;12.13;100.00;100595.31;7367095;19;20372;-49
2023/08/30 00:39:31;;;;;;;12.63;8.60;;;;;;;12.20;100.00;100601.53;7390119;19;20356;-47
2023/08/30 00:42:04;;;;;;;11.95;8.20;;;;;;;12.19;100.00;100594.63;7366780;19;20349;-50
2023/08/30 00:44:34;;;;;;;13.63;9.93;;;;;;;12.16;100.00;100597.13;7391403;19;20412;-49
2023/08/30 00:47:05;;;;;;;13.32;9.38;;;;;;;12.16;100.00;100594.53;7365357;19;20293;-51
2023/08/30 00:49:37;;;;;;;11.45;8.00;;;;;;;12.05;100.00;100601.06;7389798;19;20444;-46
2023/08/30 00:52:10;;;;;;;9.75;6.53;;;;;;;12.01;100.00;100600.91;7366142;19;20300;-50
2023/08/30 00:54:40;;;;;;;11.10;6.78;;;;;;;11.92;100.00;100602.28;7389471;19;20365;-48
2023/08/30 00:57:12;;;;;;;8.70;6.70;;;;;;;11.86;100.00;100600.41;7367252;19;20376;-50
2023/08/30 00:59:41;;;;;;;7.93;4.82;;;;;;;11.80;100.00;100597.59;7392166;19;20723;-51
2023/08/30 01:02:12;;;;;;;9.95;6.65;;;;;;;11.77;100.00;100587.13;7367400;19;20763;-50
2023/08/30 01:04:44;;;;;;;9.00;6.40;;;;;;;11.73;100.00;100584.47;7390828;19;20443;-46
2023/08/30 01:07:14;;;;;;;7.70;5.50;;;;;;;11.82;100.00;100585.59;7367197;19;20835;-45
2023/08/30 01:09:43;;;;;;;8.63;6.10;;;;;;;11.84;100.00;100579.66;7399481;19;20352;-50
2023/08/30 01:12:15;;;;;;;10.98;6.15;;;;;;;11.88;100.00;100573.78;7372744;19;20324;-50
2023/08/30 01:14:48;;;;;;;14.18;8.07;;;;;;;11.91;100.00;100578.16;7395562;19;21009;-51
2023/08/30 01:17:19;;;;;;;13.25;8.40;;;;;;;11.93;100.00;100575.59;7372105;19;20316;-50
2023/08/30 01:19:54;;;;;;;12.70;8.50;;;;;;;11.96;100.00;100580.91;7398138;19;20363;-49
2023/08/30 01:22:32;;;;;;;17.67;11.80;;;;;;;11.96;100.00;100584.38;7373710;19;20348;-49
2023/08/30 01:25:12;;;;;;;12.88;8.70;;;;;;;11.91;100.00;100572.09;7394508;19;20344;-47
2023/08/30 01:27:45;;;;;;;9.88;6.45;;;;;;;11.99;100.00;100579.28;7372576;19;20868;-47
2023/08/30 01:30:15;;;;;;;9.57;5.88;;;;;;;12.00;100.00;100573.28;7395323;19;20360;-51
2023/08/30 01:32:46;;;;;;;12.25;7.22;;;;;;;12.00;100.00;100564.66;7371669;19;20303;-50
2023/08/30 01:35:17;;;;;;;11.68;7.32;;;;;;;11.87;100.00;100563.38;7394681;19;20360;-48
2023/08/30 01:37:47;;;;;;;10.45;6.80;;;;;;;11.83;100.00;100556.34;7372530;19;20419;-50
2023/08/30 01:40:18;;;;;;;11.13;7.10;;;;;;;11.92;100.00;100551.47;7395194;19;20424;-49
2023/08/30 01:42:51;;;;;;;10.05;7.10;;;;;;;12.01;100.00;100545.75;7372357;19;20734;-50
2023/08/30 01:45:21;;;;;;;10.80;7.00;;;;;;;12.05;100.00;100544.16;7393844;19;20367;-50
2023/08/30 01:47:52;;;;;;;9.03;6.40;;;;;;;11.99;100.00;100548.25;7372105;19;20400;-48
2023/08/30 01:50:22;;;;;;;10.65;6.20;;;;;;;12.01;100.00;100546.59;7394624;19;20368;-45
2023/08/30 01:52:53;;;;;;;10.03;6.77;;;;;;;12.08;100.00;100546.84;7370044;19;20329;-50
2023/08/30 01:55:24;;;;;;;9.35;6.20;;;;;;;12.07;100.00;100548.56;7394555;19;20360;-47
2023/08/30 01:57:56;;;;;;;9.47;5.40;;;;;;;12.01;100.00;100544.00;7367234;19;20317;-49
2023/08/30 02:00:26;;;;;;;8.35;5.40;;;;;;;12.06;100.00;100539.06;7394993;19;20360;-48
2023/08/30 02:02:55;;;;;;;9.32;5.90;;;;;;;12.07;100.00;100539.91;7370376;19;20341;-47
2023/08/30 02:05:25;;;;;;;8.20;5.40;;;;;;;11.96;100.00;100537.84;7393767;19;20353;-52
2023/08/30 02:08:00;;;;;;;8.05;5.38;;;;;;;11.94;100.00;100544.66;7368853;19;20348;-49
2023/08/30 02:10:33;;;;;;;8.23;5.68;;;;;;;11.86;100.00;100538.34;7398220;19;20368;-47
2023/08/30 02:13:06;;;;;;;8.30;5.70;;;;;;;11.82;100.00;100539.97;7370049;19;20309;-48
2023/08/30 02:15:38;;;;;;;8.52;5.47;;;;;;;11.78;100.00;100542.41;7394634;19;20783;-48
2023/08/30 02:18:08;;;;;;;7.60;5.20;;;;;;;11.74;100.00;100551.72;7368743;19;20324;-44
2023/08/30 02:20:38;;;;;;;7.20;5.20;;;;;;;11.73;100.00;100560.31;7395427;19;20588;-49
2023/08/30 02:23:08;;;;;;;8.05;5.75;;;;;;;11.77;100.00;100554.44;7370104;19;20424;-50
2023/08/30 02:25:43;;;;;;;12.95;6.75;;;;;;;11.85;100.00;100547.81;7395936;19;20380;-50
2023/08/30 02:28:16;;;;;;;9.60;5.30;;;;;;;11.84;100.00;100542.59;7370624;19;20332;-48
2023/08/30 02:30:45;;;;;;;7.20;5.07;;;;;;;11.86;100.00;100546.13;7395174;19;20368;-47
2023/08/30 02:33:15;;;;;;;9.87;5.70;;;;;;;11.87;100.00;100543.59;7368932;19;20396;-51
2023/08/30 02:35:45;;;;;;;8.10;5.40;;;;;;;11.89;100.00;100551.38;7394565;19;20360;-51
2023/08/30 02:38:14;;;;;;;9.38;5.97;;;;;;;11.84;100.00;100543.47;7369833;19;20329;-49
2023/08/30 02:40:44;;;;;;;10.27;6.15;;;;;;;11.84;100.00;100546.06;7397560;19;20367;-48
2023/08/30 02:43:17;;;;;;;8.10;5.75;;;;;;;11.89;100.00;100548.78;7369358;19;20403;-52
2023/08/30 02:45:46;;;;;;;10.38;6.80;;;;;;;11.95;100.00;100548.97;7393055;19;20356;-47
2023/08/30 02:48:16;;;;;;;9.20;5.60;;;;;;;11.96;100.00;100552.47;7370177;19;20324;-52
2023/08/30 02:50:46;;;;;;;9.05;6.45;;;;;;;11.94;100.00;100554.13;7396898;19;20356;-48
2023/08/30 02:53:15;;;;;;;13.93;8.10;;;;;;;11.96;100.00;100552.47;7369099;19;20331;-47
2023/08/30 02:55:45;;;;;;;12.25;8.75;;;;;;;11.98;100.00;100554.28;7394151;19;20365;-49
2023/08/30 02:58:17;;;;;;;14.98;10.00;;;;;;;11.89;100.00;100549.66;7369891;19;20977;-49
2023/08/30 03:00:47;;;;;;;16.38;10.48;;;;;;;11.87;100.00;100542.69;7394498;19;20428;-50
2023/08/30 03:03:17;;;;;;;13.35;9.20;;;;;;;11.82;100.00;100533.91;7369077;19;20337;-50
2023/08/30 03:05:46;;;;;;;12.20;8.40;;;;;;;11.84;100.00;100534.84;7394169;19;20718;-47
2023/08/30 03:08:19;;;;;;;10.95;7.45;;;;;;;11.84;100.00;100522.78;7369450;19;20325;-50
2023/08/30 03:10:48;;;;;;;11.07;7.40;;;;;;;11.87;100.00;100519.44;7394278;19;20752;-45
2023/08/30 03:13:20;;;;;;;11.27;7.70;;;;;;;11.91;100.00;100518.72;7368535;19;20416;-49
2023/08/30 03:15:50;;;;;;;10.63;7.10;;;;;;;11.94;100.00;100516.22;7393879;19;20400;-52
2023/08/30 03:18:20;;;;;;;11.65;8.10;;;;;;;11.97;100.00;100508.56;7368437;19;20316;-51
2023/08/30 03:20:49;;;;;;;11.18;7.80;;;;;;;12.06;100.00;100510.59;7396003;19;20386;-47
2023/08/30 03:23:19;;;;;;;11.68;7.88;;;;;;;12.08;100.00;100505.47;7371094;19;20321;-47
2023/08/30 03:25:48;;;;;;;11.20;7.78;;;;;;;12.18;100.00;100510.09;7393512;19;20363;-50
2023/08/30 03:28:20;;;;;;;10.87;7.17;;;;;;;12.20;100.00;100505.84;7368836;19;21312;-49
2023/08/30 03:30:50;;;;;;;10.80;6.60;;;;;;;12.25;100.00;100509.44;7391301;19;20428;-49
2023/08/30 03:33:19;;;;;;;10.38;7.07;;;;;;;12.26;100.00;100505.16;7368164;19;20344;-49
2023/08/30 03:35:49;;;;;;;10.30;6.70;;;;;;;12.29;100.00;100500.97;7394044;19;20364;-47
2023/08/30 03:38:19;;;;;;;10.82;7.03;;;;;;;12.32;100.00;100502.78;7367645;19;20919;-51
2023/08/30 03:40:48;;;;;;;9.80;6.68;;;;;;;12.28;100.00;100496.63;7393222;19;20436;-51
2023/08/30 03:43:20;;;;;;;9.23;6.13;;;;;;;12.24;100.00;100492.19;7368642;19;20399;-48
2023/08/30 03:45:50;;;;;;;8.98;5.90;;;;;;;12.23;100.00;100494.72;7392970;19;20368;-47
2023/08/30 03:48:19;;;;;;;9.10;5.90;;;;;;;12.20;100.00;100502.41;7368022;19;20435;-48
2023/08/30 03:50:49;;;;;;;9.13;6.22;;;;;;;12.21;100.00;100507.59;7393441;19;20368;-50
2023/08/30 03:53:19;;;;;;;8.80;6.20;;;;;;;12.15;100.00;100508.28;7366789;19;20792;-50
2023/08/30 03:55:48;;;;;;;8.90;6.03;;;;;;;12.10;100.00;100501.22;7392610;19;20375;-50
2023/08/30 03:58:21;;;;;;;9.02;5.80;;;;;;;12.12;100.00;100494.38;7367345;19;20321;-47
2023/08/30 04:00:51;;;;;;;10.80;6.60;;;;;;;12.13;100.00;100493.56;7393007;19;20381;-48
2023/08/30 04:03:20;;;;;;;9.63;6.30;;;;;;;12.29;100.00;100490.63;7367763;19;20332;-51
2023/08/30 04:05:50;;;;;;;10.93;6.70;;;;;;;12.34;100.00;100488.16;7392234;19;20357;-49
2023/08/30 04:08:20;;;;;;;12.02;7.45;;;;;;;12.24;100.00;100486.13;7366854;19;20316;-48
2023/08/30 04:10:50;;;;;;;11.70;7.90;;;;;;;12.19;100.00;100477.38;7395046;19;20353;-47
2023/08/30 04:13:22;;;;;;;12.30;8.00;;;;;;;12.13;100.00;100473.75;7366768;19;20344;-48
2023/08/30 04:15:51;;;;;;;13.40;8.30;;;;;;;12.12;100.00;100473.69;7392467;19;20373;-45
2023/08/30 04:18:21;;;;;;;13.52;8.10;;;;;;;12.13;100.00;100463.41;7367307;19;20312;-45
2023/08/30 04:20:50;;;;;;;13.75;8.27;;;;;;;12.18;100.00;100455.78;7392950;19;20444;-47
2023/08/30 04:23:20;;;;;;;12.00;7.40;;;;;;;12.24;100.00;100455.09;7367218;19;20788;-45
2023/08/30 04:25:50;;;;;;;15.38;7.70;;;;;;;12.30;100.00;100442.34;7392196;19;20421;-46
2023/08/30 04:28:22;;;;;;;14.32;8.32;;;;;;;12.19;100.00;100434.25;7367117;19;20460;-51
2023/08/30 04:30:51;;;;;;;13.85;8.20;;;;;;;12.18;100.00;100429.03;7392957;19;20370;-49
2023/08/30 04:33:21;;;;;;;12.15;8.05;;;;;;;12.19;100.00;100434.25;7365225;19;20332;-50
2023/08/30 04:35:53;;;;;;;15.00;8.48;;;;;;;12.22;100.00;100436.94;7392223;19;20896;-49
2023/08/30 04:38:23;;;;;;;13.35;9.40;;;;;;;12.22;100.00;100433.47;7368137;19;20736;-46
2023/08/30 04:40:52;;;;;;;12.40;9.20;;;;;;;12.27;100.00;100432.78;7392903;19;20436;-47
2023/08/30 04:43:24;;;;;;;14.20;9.03;;;;;;;12.34;100.00;100425.19;7367833;19;20467;-47
2023/08/30 04:45:54;;;;;;;12.93;8.13;;;;;;;12.41;100.00;100427.16;7390805;19;20364;-49
2023/08/30 04:48:24;;;;;;;14.38;8.15;;;;;;;12.50;100.00;100422.22;7366645;19;20867;-45
2023/08/30 04:51:01;;;;;;;12.98;8.30;;;;;;;12.59;100.00;100429.38;7390304;19;20778;-49
2023/08/30 04:53:30;;;;;;;10.95;7.60;;;;;;;12.59;100.00;100425.91;7365030;19;20335;-47
2023/08/30 04:56:00;;;;;;;11.63;7.88;;;;;;;12.55;100.00;100422.34;7389155;19;20360;-52
2023/08/30 04:58:32;;;;;;;10.65;7.53;;;;;;;12.54;100.00;100421.50;7366737;19;20398;-52
2023/08/30 05:01:02;;;;;;;11.32;7.43;;;;;;;12.64;100.00;100424.31;7390500;19;20435;-48
2023/08/30 05:03:32;;;;;;;10.00;7.20;;;;;;;12.73;100.00;100426.28;7366228;19;20339;-48
2023/08/30 05:06:01;;;;;;;10.43;7.13;;;;;;;12.73;100.00;100432.34;7390068;19;20364;-51
2023/08/30 05:08:31;;;;;;;11.32;7.15;;;;;;;12.76;100.00;100428.97;7365550;19;20317;-47
2023/08/30 05:11:01;;;;;;;11.50;7.80;;;;;;;12.77;100.00;100441.94;7390014;19;20436;-52
2023/08/30 05:13:36;;;;;;;12.85;7.50;;;;;;;12.84;100.00;100443.00;7364963;19;20339;-49
2023/08/30 05:16:06;;;;;;;12.27;7.70;;;;;;;12.94;100.00;100441.53;7388936;19;20427;-45
2023/08/30 05:18:35;;;;;;;12.93;7.75;;;;;;;12.93;100.00;100452.75;7366326;19;20337;-48
2023/08/30 05:21:06;;;;;;;12.40;7.80;;;;;;;12.98;100.00;100453.75;7388960;19;20424;-49
2023/08/30 05:23:36;;;;;;;11.93;8.23;;;;;;;12.89;100.00;100467.31;7366043;19;20328;-49
2023/08/30 05:26:08;;;;;;;12.10;7.70;;;;;;;12.92;100.00;100475.16;7389103;19;20385;-48
2023/08/30 05:28:41;;;;;;;11.40;8.15;;;;;;;12.88;100.00;100475.91;7365561;19;20749;-51
2023/08/30 05:31:10;;;;;;;12.40;8.20;;;;;;;12.88;100.00;100478.50;7389325;19;20360;-47
2023/08/30 05:33:40;;;;;;;12.70;7.45;;;;;;;13.03;100.00;100479.75;7363102;19;20427;-48
2023/08/30 05:36:09;;;;;;;13.32;7.85;;;;;;;13.02;100.00;100478.00;7388152;19;20357;-48
2023/08/30 05:38:39;;;;;;;13.40;8.37;;;;;;;13.10;100.00;100486.84;7365134;19;20399;-48
2023/08/30 05:41:08;;;;;;;12.05;8.50;;;;;;;13.27;100.00;100487.28;7388807;19;20452;-48
2023/08/30 05:43:41;;;;;;;13.90;7.90;;;;;;;13.17;100.00;100488.78;7365893;19;20364;-49
2023/08/30 05:46:14;;;;;;;13.23;8.52;;;;;;;13.17;100.00;100498.28;7388142;19;20385;-50
2023/08/30 05:48:44;;;;;;;16.17;8.65;;;;;;;13.19;100.00;100494.84;7365827;19;20895;-50
2023/08/30 05:51:14;;;;;;;15.27;8.88;;;;;;;13.13;100.00;100499.00;7389046;19;21197;-50
2023/08/30 05:53:43;;;;;;;12.02;8.20;;;;;;;13.40;100.00;100505.75;7367601;19;20332;-50
2023/08/30 05:56:13;;;;;;;11.40;7.60;;;;;;;13.57;100.00;100507.09;7395767;19;20371;-45
2023/08/30 05:58:45;;;;;;;13.07;8.05;;;;;;;13.73;100.00;100510.06;7371551;19;20893;-48
2023/08/30 06:01:16;;;;;;;11.00;8.07;;;;;;;13.80;100.00;100519.78;7395298;19;20823;-48
2023/08/30 06:03:46;;;;;;;12.57;8.37;;;;;;;13.72;100.00;100523.88;7371746;19;20332;-47
2023/08/30 06:06:17;;;;;;;12.07;8.50;;;;;;;13.69;100.00;100526.41;7396004;19;20388;-48
2023/08/30 06:08:47;;;;;;;11.20;8.30;;;;;;;13.64;100.00;100524.56;7372110;19;20335;-53
2023/08/30 06:11:16;;;;;;;13.27;8.60;;;;;;;13.55;100.00;100532.13;7397468;19;20894;-50
2023/08/30 06:13:48;;;;;;;13.55;8.35;;;;;;;13.55;100.00;100518.28;7369688;19;20332;-50
2023/08/30 06:16:18;;;;;;;12.40;8.93;;;;;;;13.58;100.00;100516.63;7394043;19;20371;-48
2023/08/30 06:18:48;;;;;;;12.50;7.87;;;;;;;13.55;100.00;100516.56;7371936;19;20349;-46
2023/08/30 06:21:17;;;;;;;11.32;8.60;;;;;;;13.60;100.00;100506.31;7398530;19;20463;-49
2023/08/30 06:23:47;;;;;;;14.52;8.80;;;;;;;13.63;100.00;100509.84;7371255;19;20339;-48
2023/08/30 06:26:17;;;;;;;13.75;8.77;;;;;;;13.74;100.00;100506.66;7394459;19;20368;-47
2023/08/30 06:28:49;;;;;;;12.57;8.52;;;;;;;13.87;100.00;100511.31;7372280;19;20329;-46
2023/08/30 06:31:32;;;;;;;14.98;9.35;;;;;;;13.99;100.00;100494.25;7395228;19;20373;-49
2023/08/30 06:34:02;;;;;;;13.43;8.95;;;;;;;14.04;100.00;100490.97;7370820;19;20355;-50
2023/08/30 06:36:32;;;;;;;13.70;8.48;;;;;;;14.12;100.00;100493.72;7393673;19;20380;-49
2023/08/30 06:39:01;;;;;;;13.95;8.43;;;;;;;14.17;100.00;100493.84;7367095;19;20363;-48
2023/08/30 06:41:31;;;;;;;13.20;8.80;;;;;;;14.24;100.00;100497.41;7395343;19;20367;-48
2023/08/30 06:44:03;;;;;;;11.70;8.10;;;;;;;14.33;100.00;100497.66;7370695;19;20493;-45
2023/08/30 06:46:33;;;;;;;13.85;9.10;;;;;;;14.34;100.00;100502.00;7393683;19;20369;-49
2023/08/30 06:49:03;;;;;;;22.42;13.60;;;;;;;14.36;100.00;100513.28;7371298;19;20341;-48
2023/08/30 06:51:32;;;;;;;16.85;10.98;;;;;;;14.37;100.00;100530.63;7394766;19;20976;-50
2023/08/30 06:54:02;;;;;;;12.88;9.00;;;;;;;14.40;100.00;100546.25;7370782;19;20361;-50
2023/08/30 06:56:31;;;;;;;14.82;9.02;;;;;;;14.43;100.00;100550.63;7393570;19;20365;-47
2023/08/30 06:59:04;;;;;;;13.57;9.45;;;;;;;14.40;100.00;100560.94;7370400;19;20325;-50
2023/08/30 07:01:33;;;;;;;17.15;10.40;;;;;;;14.45;100.00;100560.22;7395089;19;20365;-47
2023/08/30 07:04:05;;;;;;;16.50;10.75;;;;;;;14.50;100.00;100575.03;7370012;19;20329;-52
2023/08/30 07:06:35;;;;;;;14.23;8.80;;;;;;;14.57;100.00;100571.72;7394672;19;20368;-44
2023/08/30 07:09:06;;;;;;;12.90;8.30;;;;;;;14.63;100.00;100574.44;7370226;19;20325;-44
2023/08/30 07:11:36;;;;;;;14.68;9.52;;;;;;;14.75;100.00;100575.56;7393015;19;20374;-46
2023/08/30 07:14:08;;;;;;;12.68;8.38;;;;;;;14.74;100.00;100589.38;7370681;19;20325;-46
2023/08/30 07:16:38;;;;;;;14.45;8.45;;;;;;;14.82;100.00;100599.13;7393375;19;20359;-46
2023/08/30 07:19:09;;;;;;;13.15;8.50;;;;;;;14.83;100.00;100607.81;7370394;19;20416;-46
2023/08/30 07:21:39;;;;;;;15.80;9.40;;;;;;;14.84;100.00;100622.53;7394926;19;20370;-46
2023/08/30 07:24:10;;;;;;;12.48;8.52;;;;;;;14.78;100.00;100631.06;7371908;19;20698;-49
2023/08/30 07:26:40;;;;;;;14.02;8.90;;;;;;;14.84;100.00;100641.59;7394144;19;20436;-51
2023/08/30 07:29:12;;;;;;;19.40;12.23;;;;;;;14.91;100.00;100642.59;7372105;19;20337;-47
2023/08/30 07:31:42;;;;;;;15.30;9.75;;;;;;;14.96;100.00;100645.28;7394369;19;20364;-47
2023/08/30 07:34:12;;;;;;;12.85;8.70;;;;;;;15.02;100.00;100652.34;7372056;19;20365;-49
2023/08/30 07:36:42;;;;;;;13.30;8.88;;;;;;;14.99;100.00;100654.03;7393965;19;20380;-50
2023/08/30 07:39:16;;;;;;;12.80;8.30;;;;;;;14.98;100.00;100660.06;7371706;19;20687;-47
2023/08/30 07:41:46;;;;;;;15.40;9.68;;;;;;;15.04;100.00;100658.47;7370922;19;20432;-50
2023/08/30 07:44:19;;;;;;;12.00;8.30;;;;;;;15.04;100.00;100661.06;7391217;19;20368;-46
2023/08/30 07:46:52;;;;;;;13.00;8.60;;;;;;;15.08;100.00;100668.94;7368452;19;20936;-45
2023/08/30 07:49:22;;;;;;;10.57;7.55;;;;;;;15.21;100.00;100672.69;7391618;19;20703;-50
2023/08/30 07:51:52;;;;;;;12.38;7.93;;;;;;;15.16;100.00;100679.50;7370329;19;20360;-52
2023/08/30 07:54:21;;;;;;;11.27;8.20;;;;;;;15.21;100.00;100685.69;7391736;19;20445;-47
2023/08/30 07:56:51;;;;;;;15.90;9.90;;;;;;;15.28;100.00;100689.28;7369374;19;20371;-46
2023/08/30 07:59:23;;;;;;;19.52;12.43;;;;;;;15.18;100.00;100698.59;7390839;19;20356;-49
2023/08/30 08:01:53;;;;;;;14.70;9.65;;;;;;;15.22;100.00;100696.94;7369137;19;20373;-47
2023/08/30 08:04:23;;;;;;;14.95;10.20;;;;;;;15.19;100.00;100697.78;7389664;19;20381;-52
2023/08/30 08:06:52;;;;;;;14.02;9.35;;;;;;;15.35;100.00;100695.50;7367705;19;20393;-53
2023/08/30 08:09:25;;;;;;;16.30;10.55;;;;;;;15.46;100.00;100696.59;7390158;19;20914;-50
2023/08/30 08:11:56;;;;;;;18.65;12.05;;;;;;;15.56;100.00;100699.38;7368446;19;20375;-49
2023/08/30 08:14:28;;;;;;;15.15;9.45;;;;;;;15.68;100.00;100697.03;7390074;19;20364;-47
2023/08/30 08:16:58;;;;;;;14.80;9.50;;;;;;;15.68;100.00;100699.63;7365313;19;20451;-51
2023/08/30 08:19:28;;;;;;;16.35;10.52;;;;;;;15.56;100.00;100704.56;7390352;19;20786;-47
2023/08/30 08:21:58;;;;;;;16.45;10.40;;;;;;;15.67;100.00;100705.69;7367502;19;20361;-52
2023/08/30 08:24:28;;;;;;;18.38;11.70;;;;;;;15.70;100.00;100708.34;7385281;19;20366;-48
2023/08/30 08:26:58;;;;;;;13.77;9.27;;;;;;;15.83;100.00;100703.38;7364365;19;20907;-52
2023/08/30 08:29:30;;;;;;;16.35;10.52;;;;;;;15.79;100.00;100716.31;7389760;19;20368;-49
2023/08/30 08:32:00;;;;;;;14.77;10.10;;;;;;;15.80;100.00;100717.22;7366060;19;20360;-48
2023/08/30 08:34:29;;;;;;;13.80;9.10;;;;;;;16.03;100.00;100717.69;7389599;19;20393;-47
2023/08/30 08:36:59;;;;;;;15.85;8.73;;;;;;;16.12;100.00;100721.28;7364735;19;20363;-50
2023/08/30 08:39:29;;;;;;;15.03;9.10;;;;;;;16.19;100.00;100733.56;7388757;19;20447;-48
2023/08/30 08:41:59;;;;;;;12.70;8.00;;;;;;;16.21;100.00;100737.09;7367613;19;20377;-49
2023/08/30 08:44:34;;;;;;;15.23;8.13;;;;;;;16.38;100.00;100742.59;7389390;19;20432;-49
2023/08/30 08:47:04;;;;;;;13.27;7.60;;;;;;;16.31;100.00;100749.41;7364367;19;20390;-50
2023/08/30 08:49:34;;;;;;;14.50;7.90;;;;;;;16.37;100.00;100758.19;7388872;19;20369;-48
2023/08/30 08:52:04;;;;;;;12.65;7.45;;;;;;;16.35;100.00;100768.56;7364988;19;20799;-47
2023/08/30 08:54:54;;;;;;;13.30;8.40;;;;;;;16.37;100.00;100779.00;7390234;19;20371;-51
2023/08/30 08:57:25;;;;;;;14.90;8.43;;;;;;;16.39;100.00;100782.50;7364812;19;20674;-49
2023/08/30 08:59:57;;;;;;;15.52;8.10;;;;;;;16.35;100.00;100786.78;7389432;19;20363;-52
2023/08/30 09:02:28;;;;;;;12.60;7.80;;;;;;;16.30;100.00;100783.22;7364924;19;20877;-49
2023/08/30 09:05:00;;;;;;;14.70;8.32;;;;;;;16.30;100.00;100788.41;7387093;19;20353;-48
2023/08/30 09:07:30;;;;;;;14.63;8.88;;;;;;;16.35;100.00;100789.38;7364308;19;20305;-47
2023/08/30 09:10:00;;;;;;;15.55;8.88;;;;;;;16.62;100.00;100780.31;7388295;19;20432;-49
2023/08/30 09:12:30;;;;;;;12.25;7.32;;;;;;;16.48;100.00;100806.13;7364230;19;20931;-47
2023/08/30 09:15:04;;;;;;;12.55;6.70;;;;;;;16.47;100.00;100812.19;7388048;19;20435;-47
2023/08/30 09:17:40;;;;;;;12.85;8.00;;;;;;;16.45;100.00;100830.38;7363458;19;20310;-50
2023/08/30 09:20:10;;;;;;;19.37;10.43;;;;;;;16.50;100.00;100833.06;7386915;19;20363;-51
2023/08/30 09:22:41;;;;;;;16.50;9.57;;;;;;;16.66;100.00;100828.13;7365557;19;20329;-49
2023/08/30 09:25:12;;;;;;;12.10;6.20;;;;;;;16.88;100.00;100827.63;7388454;19;20695;-51
2023/08/30 09:27:41;;;;;;;12.93;7.80;;;;;;;16.80;100.00;100833.56;7364645;19;20384;-49
2023/08/30 09:30:15;;;;;;;15.57;10.03;;;;;;;16.81;100.00;100833.59;7394478;19;20891;-50
2023/08/30 09:32:45;;;;;;;12.63;7.45;;;;;;;17.08;100.00;100845.38;7370211;19;20296;-49
2023/08/30 09:35:14;;;;;;;16.63;9.90;;;;;;;16.99;100.00;100840.84;7394121;19;20366;-50
2023/08/30 09:37:47;;;;;;;13.82;7.68;;;;;;;17.02;100.00;100842.66;7370750;19;20392;-49
2023/08/30 09:40:22;;;;;;;11.80;6.70;;;;;;;17.23;100.00;100839.53;7393762;19;20372;-50
2023/08/30 09:42:51;;;;;;;11.18;6.75;;;;;;;17.25;100.00;100826.53;7371140;19;20325;-51
2023/08/30 09:45:44;;;;;;;11.43;7.00;;;;;;;17.12;100.00;100822.81;7395593;19;20340;-47
2023/08/30 09:48:14;;;;;;;14.27;7.00;;;;;;;17.20;100.00;100792.56;7370058;19;20408;-50
2023/08/30 09:50:44;;;;;;;10.95;6.93;;;;;;;17.08;100.00;100750.69;7398142;19;20353;-49
2023/08/30 09:53:14;;;;;;;8.68;5.00;;;;;;;16.94;100.00;100730.47;7369932;19;20797;-50
2023/08/30 09:55:45;;;;;;;7.63;4.55;;;;;;;17.00;100.00;100709.72;7394185;19;20365;-50
2023/08/30 09:58:15;;;;;;;10.60;5.00;;;;;;;17.02;100.00;100639.38;7370167;19;20371;-50
2023/08/30 10:00:51;;;;;;;10.03;5.60;;;;;;;17.12;100.00;100603.88;7395472;19;20375;-47
2023/08/30 10:03:21;;;;;;;7.57;4.57;;;;;;;17.19;100.00;100570.97;7370165;19;20349;-51
2023/08/30 10:06:02;;;;;;;7.07;4.22;;;;;;;17.23;100.00;100524.09;7392249;19;20356;-50
2023/08/30 10:08:32;;;;;;;10.13;4.80;;;;;;;17.26;100.00;100512.81;7366864;19;20749;-51
2023/08/30 10:11:02;;;;;;;8.55;4.80;;;;;;;17.08;100.00;100449.22;7393992;19;20945;-49
2023/08/30 10:13:32;;;;;;;9.13;4.60;;;;;;;17.00;100.00;100464.75;7370365;19;20905;-47
2023/08/30 10:16:08;;;;;;;7.70;4.57;;;;;;;17.10;100.00;100501.34;7392423;19;20368;-50
2023/08/30 10:18:39;;;;;;;7.22;4.45;;;;;;;17.18;100.00;100493.63;7370094;19;20321;-48
2023/08/30 10:21:21;;;;;;;12.20;5.00;;;;;;;17.00;100.00;100492.53;7394330;19;20369;-52
2023/08/30 10:23:55;;;;;;;8.13;4.80;;;;;;;17.03;100.00;100482.19;7370421;19;20416;-49
2023/08/30 10:26:26;;;;;;;8.38;5.20;;;;;;;17.01;100.00;100481.25;7394038;19;20387;-49
2023/08/30 10:28:56;;;;;;;9.32;5.00;;;;;;;17.03;100.00;100499.53;7371004;19;20328;-51
2023/08/30 10:31:29;;;;;;;9.50;4.97;;;;;;;17.08;100.00;100503.94;7394257;19;20424;-47
2023/08/30 10:33:59;;;;;;;10.18;5.05;;;;;;;17.14;100.00;100506.59;7369069;19;20404;-49
2023/08/30 10:36:29;;;;;;;9.73;5.45;;;;;;;17.18;100.00;100499.69;7393497;19;20715;-49
2023/08/30 10:38:59;;;;;;;8.98;4.55;;;;;;;17.09;100.00;100516.13;7369380;19;20349;-51
2023/08/30 10:41:29;;;;;;;9.27;4.93;;;;;;;17.21;100.00;100501.47;7393988;19;20356;-49
2023/08/30 10:44:01;;;;;;;8.82;4.50;;;;;;;17.26;100.00;100538.88;7370739;19;20887;-52
2023/08/30 10:46:37;;;;;;;10.05;4.30;;;;;;;17.43;100.00;100514.72;7393253;19;20404;-49
2023/08/30 10:49:14;;;;;;;8.45;4.43;;;;;;;17.37;100.00;100487.72;7369434;19;20799;-46
2023/08/30 10:51:44;;;;;;;8.20;4.85;;;;;;;17.30;100.00;100431.19;7387811;19;20723;-51
2023/08/30 10:54:15;;;;;;;8.18;4.80;;;;;;;17.61;100.00;100460.13;7393345;19;21052;-47
2023/08/30 10:56:49;;;;;;;7.68;4.50;;;;;;;17.76;100.00;100448.03;7375621;19;20368;-50
2023/08/30 10:59:20;;;;;;;7.57;4.78;;;;;;;17.71;100.00;100416.72;7393702;19;20364;-50
2023/08/30 11:01:55;;;;;;;9.27;5.10;;;;;;;18.02;100.00;100422.13;7372451;19;20371;-48
2023/08/30 11:04:25;;;;;;;8.80;4.70;;;;;;;18.16;100.00;100408.31;7391906;19;20460;-50
2023/08/30 11:06:55;;;;;;;11.57;5.00;;;;;;;18.01;100.00;100393.41;7369040;19;20436;-52
2023/08/30 11:09:26;;;;;;;8.93;5.10;;;;;;;17.89;100.00;100417.72;7392380;19;20379;-50
2023/08/30 11:11:56;;;;;;;8.80;4.60;;;;;;;17.86;100.00;100430.72;7369550;19;20367;-49
2023/08/30 11:14:26;;;;;;;9.43;4.80;;;;;;;17.89;100.00;100430.75;7390971;19;20432;-53
2023/08/30 11:16:58;;;;;;;8.23;4.43;;;;;;;18.17;100.00;100439.66;7368260;19;20369;-53
2023/08/30 11:19:32;;;;;;;7.95;4.10;;;;;;;18.39;100.00;100431.00;7392627;19;20748;-53
2023/08/30 11:22:02;;;;;;;7.75;4.35;;;;;;;18.44;100.00;100426.69;7367351;19;20352;-49
2023/08/30 11:24:32;;;;;;;10.18;5.10;;;;;;;18.19;100.00;100371.75;7391872;19;20360;-54
2023/08/30 11:27:02;;;;;;;10.57;4.90;;;;;;;18.00;100.00;100368.19;7368066;19;20368;-53
2023/08/30 11:29:31;;;;;;;7.97;4.80;;;;;;;17.96;100.00;100401.22;7391156;19;20353;-48